East Williamson, New York
Current Conditions -  °F | °C
As of 9:54 PM on Sunday 23 Nov 2014 (Local Time) from KROC Reporting Station
Broken Clouds Broken Clouds  
Wind Chill: 44°   Ceiling: 21000
Heat Index: 49°   Visibility: 10mi
Dew Point: 35°   Wind: 12mph
Humidity: 59%   Direction: 140°SE
Pressure: 29.74"   Gusts: NA
Location:  43.23°N, 77.15°W
Report Text: KROC 240254Z 14010KT 10SM FEW110 SCT170 BKN210 09/02 A2974 RMK AO2 SLP075 T00940017 58038
Loading
Personal Weather Stations






























Interactive Weather Map New forecast layout! Learn more

10-Day Weather Forecast

Advertisements
Track Severe Weather on mobile